createdAt,value
2018-10-02T00:00:24.756Z,5.07
2018-10-02T00:02:52.203Z,4.63
2018-10-02T00:05:19.638Z,5.00
2018-10-02T00:07:47.067Z,4.90
2018-10-02T00:10:14.487Z,5.87
2018-10-02T00:12:47.513Z,5.27
2018-10-02T00:15:14.946Z,5.70
2018-10-02T00:17:42.337Z,5.23
2018-10-02T00:20:09.800Z,6.10
2018-10-02T00:22:37.159Z,5.80
2018-10-02T00:25:05.488Z,5.90
2018-10-02T00:27:32.934Z,5.60
2018-10-02T00:30:00.461Z,5.67
2018-10-02T00:32:28.220Z,5.50
2018-10-02T00:34:55.577Z,5.67
2018-10-02T00:37:22.946Z,5.77
2018-10-02T00:39:50.367Z,6.13
2018-10-02T00:42:17.803Z,5.50
2018-10-02T00:44:45.219Z,5.63
2018-10-02T00:47:12.645Z,5.97
2018-10-02T00:49:40.046Z,5.33
2018-10-02T00:52:07.564Z,6.27
2018-10-02T00:54:34.976Z,6.37
2018-10-02T00:57:02.448Z,6.33
2018-10-02T00:59:29.851Z,5.67
2018-10-02T01:01:57.213Z,6.37
2018-10-02T01:04:24.648Z,4.90
2018-10-02T01:06:52.074Z,5.47
2018-10-02T01:09:19.496Z,5.43
2018-10-02T01:11:46.907Z,6.67
2018-10-02T01:14:14.339Z,5.33
2018-10-02T01:16:41.721Z,5.47
2018-10-02T01:19:09.164Z,6.00
2018-10-02T01:21:36.586Z,5.37
2018-10-02T01:24:04.332Z,5.13
2018-10-02T01:26:31.709Z,5.10
2018-10-02T01:28:59.223Z,6.30
2018-10-02T01:31:26.647Z,5.60
2018-10-02T01:33:54.052Z,5.57
2018-10-02T01:36:21.449Z,4.90
2018-10-02T01:38:48.823Z,6.13
2018-10-02T01:41:16.233Z,5.97
2018-10-02T01:43:43.697Z,5.47
2018-10-02T01:46:11.078Z,5.17
2018-10-02T01:48:38.462Z,4.63
2018-10-02T01:51:05.937Z,5.13
2018-10-02T01:53:33.641Z,4.53
2018-10-02T01:56:01.034Z,5.57
2018-10-02T01:58:28.483Z,5.30
2018-10-02T02:00:55.887Z,5.07
2018-10-02T02:03:23.333Z,4.70
2018-10-02T02:05:50.800Z,5.00
2018-10-02T02:08:18.178Z,4.50
2018-10-02T02:10:45.617Z,5.00
2018-10-02T02:13:13.024Z,5.53
2018-10-02T02:15:40.434Z,5.53
2018-10-02T02:18:07.899Z,4.93
2018-10-02T02:20:35.299Z,4.30
2018-10-02T02:23:02.635Z,4.53
2018-10-02T02:25:30.287Z,4.87
2018-10-02T02:27:57.705Z,5.27
2018-10-02T02:30:25.142Z,5.27
2018-10-02T02:32:52.573Z,5.03
2018-10-02T02:35:20.041Z,4.40
2018-10-02T02:37:47.430Z,4.47
2018-10-02T02:40:14.998Z,5.37
2018-10-02T02:42:42.392Z,5.10
2018-10-02T02:45:09.849Z,4.37
2018-10-02T02:47:42.919Z,4.90
2018-10-02T02:50:15.908Z,4.30
2018-10-02T02:52:46.709Z,4.20
2018-10-02T02:55:14.267Z,4.13
2018-10-02T02:57:42.047Z,4.20
2018-10-02T03:00:09.427Z,4.87
2018-10-02T03:02:36.819Z,4.33
2018-10-02T03:05:04.584Z,4.23
2018-10-02T03:07:32.024Z,4.43
2018-10-02T03:09:59.373Z,4.23
2018-10-02T03:12:26.844Z,4.43
2018-10-02T03:14:54.277Z,4.90
2018-10-02T03:17:21.674Z,4.90
2018-10-02T03:19:49.105Z,4.50
2018-10-02T03:22:16.525Z,4.27
2018-10-02T03:24:44.037Z,4.90
2018-10-02T03:27:11.442Z,4.73
2018-10-02T03:29:38.852Z,4.93
2018-10-02T03:32:06.962Z,4.80
2018-10-02T03:34:34.368Z,5.07
2018-10-02T03:37:01.778Z,5.13
2018-10-02T03:39:29.185Z,5.17
2018-10-02T03:41:56.589Z,5.00
2018-10-02T03:44:24.083Z,4.73
2018-10-02T03:46:51.429Z,5.03
2018-10-02T03:49:18.848Z,4.67
2018-10-02T03:51:46.239Z,5.93
2018-10-02T03:54:13.642Z,5.00
2018-10-02T03:56:41.052Z,4.83
2018-10-02T03:59:08.482Z,5.00
2018-10-02T04:01:35.880Z,4.80
2018-10-02T04:04:03.322Z,5.20
2018-10-02T04:06:30.700Z,4.80
2018-10-02T04:08:58.106Z,4.60
2018-10-02T04:11:25.562Z,4.67
2018-10-02T04:13:52.954Z,5.30
2018-10-02T04:16:20.384Z,4.90
2018-10-02T04:18:47.789Z,4.57
2018-10-02T04:21:19.740Z,4.40
2018-10-02T04:23:47.103Z,4.90
2018-10-02T04:26:15.412Z,4.67
2018-10-02T04:28:42.845Z,5.10
2018-10-02T04:31:10.262Z,5.57
2018-10-02T04:33:37.693Z,5.07
2018-10-02T04:36:05.113Z,5.03
2018-10-02T04:38:32.498Z,6.40
2018-10-02T04:40:59.908Z,6.67
2018-10-02T04:43:27.365Z,6.80
2018-10-02T04:45:54.785Z,6.77
2018-10-02T04:48:22.169Z,6.10
2018-10-02T04:50:49.575Z,7.00
2018-10-02T04:53:17.018Z,5.70
2018-10-02T04:55:44.528Z,5.63
2018-10-02T04:58:11.854Z,6.17
2018-10-02T05:00:39.237Z,5.87
2018-10-02T05:03:06.657Z,5.67
2018-10-02T05:05:34.045Z,5.97
2018-10-02T05:08:01.470Z,5.57
2018-10-02T05:10:28.863Z,5.33
2018-10-02T05:12:56.318Z,5.03
2018-10-02T05:15:23.698Z,5.60
2018-10-02T05:17:51.138Z,5.67
2018-10-02T05:20:18.593Z,5.63
2018-10-02T05:22:45.968Z,5.47
2018-10-02T05:25:13.403Z,5.47
2018-10-02T05:27:40.916Z,6.87
2018-10-02T05:30:08.401Z,5.53
2018-10-02T05:32:35.860Z,6.60
2018-10-02T05:35:03.349Z,7.70
2018-10-02T05:37:30.785Z,6.53
2018-10-02T05:39:58.204Z,7.00
2018-10-02T05:42:25.659Z,6.37
2018-10-02T05:44:53.061Z,5.93
2018-10-02T05:47:20.539Z,6.30
2018-10-02T05:49:47.945Z,6.17
2018-10-02T05:52:15.378Z,6.07
2018-10-02T05:54:42.768Z,5.93
2018-10-02T05:57:10.190Z,5.70
2018-10-02T05:59:37.651Z,5.50
2018-10-02T06:02:05.153Z,5.23
2018-10-02T06:04:32.644Z,5.10
2018-10-02T06:07:00.030Z,4.73
2018-10-02T06:09:27.459Z,5.57
2018-10-02T06:11:54.921Z,5.87
2018-10-02T06:14:22.295Z,8.70
2018-10-02T06:16:49.753Z,5.83
2018-10-02T06:19:17.242Z,5.77
2018-10-02T06:21:44.654Z,5.27
2018-10-02T06:24:12.069Z,5.67
2018-10-02T06:26:39.539Z,5.83
2018-10-02T06:29:06.929Z,6.87
2018-10-02T06:31:34.384Z,5.60
2018-10-02T06:34:01.829Z,6.67
2018-10-02T06:36:29.295Z,6.93
2018-10-02T06:38:56.719Z,6.23
2018-10-02T06:41:24.156Z,5.33
2018-10-02T06:43:51.540Z,5.20
2018-10-02T06:46:18.959Z,5.83
2018-10-02T06:48:46.423Z,5.00
2018-10-02T06:51:13.971Z,4.90
2018-10-02T06:53:41.280Z,5.37
2018-10-02T06:56:08.669Z,6.70
2018-10-02T06:58:36.158Z,5.80
2018-10-02T07:01:03.566Z,5.90
2018-10-02T07:03:30.991Z,6.23
2018-10-02T07:05:58.382Z,7.53
2018-10-02T07:08:25.794Z,6.40
2018-10-02T07:10:53.234Z,5.00
2018-10-02T07:13:20.703Z,5.00
2018-10-02T07:15:48.123Z,5.00
2018-10-02T07:18:15.610Z,5.90
2018-10-02T07:20:43.090Z,5.37
2018-10-02T07:23:10.490Z,4.90
2018-10-02T07:25:37.909Z,4.60
2018-10-02T07:28:05.492Z,5.37
2018-10-02T07:30:32.843Z,4.77
2018-10-02T07:33:00.291Z,5.20
2018-10-02T07:35:27.636Z,4.43
2018-10-02T07:37:55.055Z,4.37
2018-10-02T07:40:22.529Z,4.63
2018-10-02T07:42:49.934Z,5.53
2018-10-02T07:45:17.407Z,4.80
2018-10-02T07:47:44.801Z,4.27
2018-10-02T07:50:12.175Z,4.27
2018-10-02T07:52:39.580Z,4.20
2018-10-02T07:55:07.195Z,4.30
2018-10-02T07:57:34.594Z,4.07
2018-10-02T08:00:02.095Z,4.33
2018-10-02T08:02:29.510Z,3.80
2018-10-02T08:04:56.980Z,3.57
2018-10-02T08:07:24.385Z,3.60
2018-10-02T08:09:51.851Z,4.00
2018-10-02T08:12:19.365Z,4.27
2018-10-02T08:14:46.790Z,4.00
2018-10-02T08:17:14.178Z,2.93
2018-10-02T08:19:41.596Z,3.63
2018-10-02T08:22:09.014Z,3.03
2018-10-02T08:24:36.432Z,3.70
2018-10-02T08:27:03.911Z,3.50
2018-10-02T08:29:31.378Z,3.43
2018-10-02T08:31:58.867Z,3.00
2018-10-02T08:34:26.345Z,3.20
2018-10-02T08:36:53.758Z,3.10
2018-10-02T08:39:21.145Z,2.83
2018-10-02T08:41:48.687Z,2.70
2018-10-02T08:44:16.072Z,2.50
2018-10-02T08:46:43.510Z,2.67
2018-10-02T08:49:10.937Z,2.40
2018-10-02T08:51:38.334Z,2.33
2018-10-02T08:54:05.927Z,2.43
2018-10-02T08:56:33.290Z,2.67
2018-10-02T08:59:00.691Z,2.50
2018-10-02T09:01:28.121Z,1.60
2018-10-02T09:03:55.560Z,1.70
2018-10-02T09:06:23.046Z,1.92
2018-10-02T09:08:50.417Z,1.87
2018-10-02T09:11:17.873Z,1.70
2018-10-02T09:13:45.334Z,2.40
2018-10-02T09:16:12.871Z,1.77
2018-10-02T09:18:40.341Z,2.07
2018-10-02T09:21:07.614Z,2.30
2018-10-02T09:23:35.126Z,2.10
2018-10-02T09:26:02.540Z,1.70
2018-10-02T09:28:30.216Z,2.00
2018-10-02T09:31:03.243Z,1.80
2018-10-02T09:33:36.380Z,1.93
2018-10-02T09:36:09.235Z,1.70
2018-10-02T09:38:42.299Z,1.87
2018-10-02T09:41:15.375Z,2.50
2018-10-02T09:43:51.293Z,1.93
2018-10-02T09:46:19.166Z,1.67
2018-10-02T09:48:46.667Z,2.03
2018-10-02T09:51:14.046Z,1.70
2018-10-02T09:53:41.446Z,1.93
2018-10-02T09:56:08.904Z,1.60
2018-10-02T09:58:36.357Z,1.90
2018-10-02T10:01:10.234Z,2.20
2018-10-02T10:03:37.611Z,2.10
2018-10-02T10:06:05.042Z,2.00
2018-10-02T10:08:32.447Z,1.80
2018-10-02T10:10:59.915Z,2.20
2018-10-02T10:13:27.336Z,2.30
2018-10-02T10:15:54.768Z,2.00
2018-10-02T10:18:22.187Z,1.30
2018-10-02T10:20:49.614Z,1.80
2018-10-02T10:23:17.072Z,1.67
2018-10-02T10:25:44.503Z,1.50
2018-10-02T10:28:11.908Z,1.60
2018-10-02T10:30:39.360Z,1.30
2018-10-02T10:33:06.785Z,1.50
2018-10-02T10:35:34.201Z,1.27
2018-10-02T10:38:01.690Z,1.47
2018-10-02T10:40:29.279Z,1.77
2018-10-02T10:42:56.695Z,1.50
2018-10-02T10:45:24.148Z,2.00
2018-10-02T10:47:51.602Z,1.40
2018-10-02T10:50:19.013Z,1.60
2018-10-02T10:52:46.506Z,1.60
2018-10-02T10:55:22.567Z,1.63
2018-10-02T10:57:50.655Z,1.70
2018-10-02T11:00:18.072Z,1.93
2018-10-02T11:02:45.766Z,1.73
2018-10-02T11:05:13.175Z,1.70
2018-10-02T11:07:40.681Z,1.83
2018-10-02T11:10:08.186Z,2.03
2018-10-02T11:12:35.656Z,1.70
2018-10-02T11:15:03.473Z,1.67
2018-10-02T11:17:31.105Z,2.00
2018-10-02T11:19:58.621Z,2.03
2018-10-02T11:22:26.094Z,1.90
2018-10-02T11:24:53.552Z,1.77
2018-10-02T11:27:20.990Z,1.97
2018-10-02T11:29:48.515Z,1.53
2018-10-02T11:32:16.026Z,1.70
2018-10-02T11:34:43.502Z,1.90
2018-10-02T11:37:11.101Z,1.77
2018-10-02T11:39:38.543Z,1.80
2018-10-02T11:42:06.117Z,1.67
2018-10-02T11:44:33.732Z,1.20
2018-10-02T11:47:01.166Z,1.73
2018-10-02T11:49:28.658Z,1.70
2018-10-02T11:51:56.117Z,1.33
2018-10-02T11:54:23.553Z,1.40
2018-10-02T11:56:51.091Z,1.50
2018-10-02T11:59:18.533Z,1.50
2018-10-02T12:01:52.046Z,1.30
2018-10-02T12:04:19.487Z,1.33
2018-10-02T12:06:46.981Z,1.40
2018-10-02T12:09:14.426Z,1.40
2018-10-02T12:11:41.934Z,1.40
2018-10-02T12:14:09.429Z,1.80
2018-10-02T12:16:36.787Z,1.33
2018-10-02T12:19:04.274Z,1.40
2018-10-02T12:21:31.702Z,1.30
2018-10-02T12:23:59.163Z,1.90
2018-10-02T12:26:26.617Z,1.67
2018-10-02T12:28:54.061Z,1.47
2018-10-02T12:31:21.629Z,1.70
2018-10-02T12:33:48.977Z,1.33
2018-10-02T12:36:16.485Z,1.40
2018-10-02T12:38:43.962Z,1.60
2018-10-02T12:41:11.367Z,1.70
2018-10-02T12:43:38.848Z,1.70
2018-10-02T12:46:06.453Z,1.50
2018-10-02T12:48:33.857Z,1.23
2018-10-02T12:51:01.416Z,1.50
2018-10-02T12:53:28.833Z,1.40
2018-10-02T12:55:56.640Z,1.47
2018-10-02T12:58:24.072Z,1.63
2018-10-02T13:00:51.477Z,1.57
2018-10-02T13:03:18.914Z,1.60
2018-10-02T13:05:46.328Z,1.40
2018-10-02T13:08:13.771Z,1.23
2018-10-02T13:10:41.188Z,2.00
2018-10-02T13:13:08.667Z,1.43
2018-10-02T13:15:36.158Z,1.43
2018-10-02T13:18:03.631Z,1.30
2018-10-02T13:20:31.039Z,1.40
2018-10-02T13:22:58.526Z,1.50
2018-10-02T13:25:26.028Z,1.07
2018-10-02T13:27:53.532Z,1.60
2018-10-02T13:30:20.951Z,1.40
2018-10-02T13:32:48.433Z,1.20
2018-10-02T13:35:15.938Z,1.43
2018-10-02T13:37:43.492Z,1.23
2018-10-02T13:40:11.006Z,1.20
2018-10-02T13:42:38.483Z,1.50
2018-10-02T13:45:05.950Z,1.60
2018-10-02T13:47:33.947Z,1.60
2018-10-02T13:50:01.447Z,1.57
2018-10-02T13:52:28.906Z,1.60
2018-10-02T13:54:56.437Z,1.50
2018-10-02T13:57:23.901Z,1.77
2018-10-02T13:59:51.408Z,1.60
2018-10-02T14:02:18.852Z,1.80
2018-10-02T14:04:46.377Z,1.50
2018-10-02T14:07:13.816Z,1.60
2018-10-02T14:09:41.291Z,1.43
2018-10-02T14:12:09.067Z,1.50
2018-10-02T14:14:36.623Z,3.00
2018-10-02T14:17:04.082Z,1.83
2018-10-02T14:19:31.553Z,1.50
2018-10-02T14:21:59.034Z,1.20
2018-10-02T14:24:26.506Z,1.60
2018-10-02T14:26:53.987Z,1.50
2018-10-02T14:29:21.497Z,1.50
2018-10-02T14:31:48.959Z,1.50
2018-10-02T14:34:16.402Z,1.83
2018-10-02T14:36:43.961Z,1.83
2018-10-02T14:39:11.858Z,3.80
2018-10-02T14:41:39.453Z,1.60
2018-10-02T14:44:07.163Z,1.60
2018-10-02T14:46:34.726Z,2.20
2018-10-02T14:49:02.238Z,2.93
2018-10-02T14:51:29.683Z,2.30
2018-10-02T14:53:57.206Z,2.37
2018-10-02T14:56:24.711Z,4.10
2018-10-02T14:58:52.128Z,3.53
2018-10-02T15:01:19.617Z,2.07
2018-10-02T15:03:47.066Z,2.23
2018-10-02T15:06:14.513Z,2.20
2018-10-02T15:08:41.959Z,2.10
2018-10-02T15:11:09.677Z,2.03
2018-10-02T15:13:37.197Z,2.47
2018-10-02T15:16:04.826Z,2.50
2018-10-02T15:18:32.543Z,2.13
2018-10-02T15:21:00.053Z,3.00
2018-10-02T15:23:27.472Z,2.77
2018-10-02T15:25:54.901Z,2.60
2018-10-02T15:28:22.367Z,4.90
2018-10-02T15:30:49.845Z,3.13
2018-10-02T15:33:17.311Z,2.63
2018-10-02T15:35:44.732Z,2.40
2018-10-02T15:38:12.332Z,3.03
2018-10-02T15:40:39.914Z,2.10
2018-10-02T15:43:07.447Z,1.83
2018-10-02T15:45:34.907Z,1.60
2018-10-02T15:48:02.356Z,1.77
2018-10-02T15:50:29.841Z,1.70
2018-10-02T15:52:57.277Z,1.83
2018-10-02T15:55:24.752Z,1.80
2018-10-02T15:57:52.247Z,1.97
2018-10-02T16:00:19.809Z,1.83
2018-10-02T16:02:47.224Z,1.70
2018-10-02T16:05:14.695Z,1.57
2018-10-02T16:07:42.133Z,1.80
2018-10-02T16:10:09.592Z,1.97
2018-10-02T16:12:37.051Z,1.80
2018-10-02T16:15:04.599Z,3.00
2018-10-02T16:17:32.097Z,2.33
2018-10-02T16:19:59.588Z,2.20
2018-10-02T16:22:27.198Z,2.40
2018-10-02T16:24:54.615Z,2.20
2018-10-02T16:27:22.128Z,2.63
2018-10-02T16:29:49.636Z,2.10
2018-10-02T16:32:17.202Z,1.63
2018-10-02T16:34:49.294Z,2.03
2018-10-02T16:37:12.129Z,2.77
2018-10-02T16:39:39.673Z,2.30
2018-10-02T16:42:07.222Z,2.60
2018-10-02T16:44:34.649Z,1.90
2018-10-02T16:47:02.148Z,1.93
2018-10-02T16:49:29.583Z,4.17
2018-10-02T16:51:57.044Z,2.80
2018-10-02T16:54:24.564Z,2.40
2018-10-02T16:56:52.069Z,2.33
2018-10-02T16:59:19.632Z,2.43
2018-10-02T17:01:47.131Z,2.23
2018-10-02T17:04:14.604Z,2.37
2018-10-02T17:06:42.090Z,2.60
2018-10-02T17:09:09.647Z,2.77
2018-10-02T17:11:37.127Z,2.30
2018-10-02T17:14:04.633Z,2.00
2018-10-02T17:16:32.108Z,2.20
2018-10-02T17:18:59.589Z,1.83
2018-10-02T17:21:27.048Z,2.33
2018-10-02T17:23:54.583Z,3.23
2018-10-02T17:26:22.079Z,5.43
2018-10-02T17:28:49.565Z,4.80
2018-10-02T17:31:17.117Z,5.53
2018-10-02T17:33:44.574Z,1.70
2018-10-02T17:36:12.008Z,2.03
2018-10-02T17:38:39.518Z,2.03
2018-10-02T17:41:07.195Z,1.90
2018-10-02T17:43:35.100Z,1.83
2018-10-02T17:46:02.563Z,2.07
2018-10-02T17:48:30.037Z,1.83
2018-10-02T17:50:57.517Z,1.90
2018-10-02T17:53:24.989Z,2.07
2018-10-02T17:55:52.510Z,1.80
2018-10-02T17:58:19.972Z,2.07
2018-10-02T18:00:47.368Z,1.90
2018-10-02T18:03:14.836Z,1.83
2018-10-02T18:05:42.385Z,1.90
2018-10-02T18:08:09.759Z,2.23
2018-10-02T18:10:37.289Z,1.80
2018-10-02T18:13:04.823Z,1.70
2018-10-02T18:15:32.381Z,2.20
2018-10-02T18:17:59.894Z,2.00
2018-10-02T18:20:28.128Z,1.90
2018-10-02T18:22:55.642Z,2.03
2018-10-02T18:25:23.158Z,2.00
2018-10-02T18:27:51.139Z,1.90
2018-10-02T18:30:19.024Z,1.80
2018-10-02T18:32:46.577Z,1.73
2018-10-02T18:35:14.057Z,2.23
2018-10-02T18:37:41.470Z,1.70
2018-10-02T18:40:09.027Z,2.73
2018-10-02T18:42:36.533Z,1.90
2018-10-02T18:45:04.105Z,1.90
2018-10-02T18:47:32.073Z,2.00
2018-10-02T18:49:59.500Z,2.50
2018-10-02T18:52:27.019Z,3.13
2018-10-02T18:54:54.498Z,1.83
2018-10-02T18:57:22.022Z,2.53
2018-10-02T18:59:49.628Z,2.23
2018-10-02T19:02:17.184Z,2.33
2018-10-02T19:04:44.762Z,1.90
2018-10-02T19:07:12.289Z,2.03
2018-10-02T19:09:39.779Z,2.03
2018-10-02T19:12:12.814Z,2.23
2018-10-02T19:14:40.475Z,1.83
2018-10-02T19:17:08.011Z,1.90
2018-10-02T19:19:41.129Z,2.10
2018-10-02T19:22:08.766Z,1.90
2018-10-02T19:24:36.463Z,2.17
2018-10-02T19:27:03.983Z,1.90
2018-10-02T19:29:31.622Z,2.17
2018-10-02T19:32:07.103Z,1.80
2018-10-02T19:34:34.948Z,1.77
2018-10-02T19:37:02.621Z,1.80
2018-10-02T19:39:31.504Z,1.83
2018-10-02T19:41:59.536Z,1.80
2018-10-02T19:44:27.138Z,2.95
2018-10-02T19:46:55.934Z,2.13
2018-10-02T19:49:27.944Z,2.20
2018-10-02T19:52:30.518Z,1.90
2018-10-02T19:54:58.025Z,1.90
2018-10-02T19:57:25.470Z,1.90
2018-10-02T19:59:52.999Z,2.20
2018-10-02T20:02:20.533Z,1.97
2018-10-02T20:04:48.100Z,2.20
2018-10-02T20:07:15.570Z,2.10
2018-10-02T20:09:43.079Z,2.07
2018-10-02T20:12:10.593Z,1.90
2018-10-02T20:14:38.080Z,2.80
2018-10-02T20:17:05.776Z,2.27
2018-10-02T20:19:33.260Z,2.23
2018-10-02T20:22:00.741Z,2.20
2018-10-02T20:24:28.231Z,2.03
2018-10-02T20:26:55.753Z,2.13
2018-10-02T20:29:23.229Z,2.47
2018-10-02T20:31:51.660Z,2.27
2018-10-02T20:34:19.148Z,2.00
2018-10-02T20:36:46.716Z,2.07
2018-10-02T20:39:14.352Z,2.40
2018-10-02T20:41:42.205Z,1.90
2018-10-02T20:44:10.312Z,1.67
2018-10-02T20:46:37.933Z,1.60
2018-10-02T20:49:05.733Z,2.43
2018-10-02T20:51:33.500Z,1.83
2018-10-02T20:54:01.139Z,1.80
2018-10-02T20:56:29.664Z,1.53
2018-10-02T20:58:57.501Z,2.00
2018-10-02T21:01:24.999Z,1.80
2018-10-02T21:03:52.435Z,1.80
2018-10-02T21:06:21.912Z,1.73
2018-10-02T21:08:49.537Z,1.87
2018-10-02T21:11:17.032Z,1.47
2018-10-02T21:13:44.625Z,1.43
2018-10-02T21:16:12.570Z,1.77
2018-10-02T21:18:40.443Z,1.40
2018-10-02T21:21:07.966Z,1.43
2018-10-02T21:23:36.020Z,2.10
2018-10-02T21:26:03.800Z,1.87
2018-10-02T21:28:31.523Z,1.73
2018-10-02T21:30:59.188Z,2.03
2018-10-02T21:33:26.620Z,1.87
2018-10-02T21:35:54.464Z,1.90
2018-10-02T21:38:21.903Z,1.70
2018-10-02T21:40:50.783Z,1.80
2018-10-02T21:43:18.608Z,1.53
2018-10-02T21:45:46.470Z,1.37
2018-10-02T21:48:14.184Z,1.63
2018-10-02T21:50:42.089Z,1.80
2018-10-02T21:53:09.985Z,2.43
2018-10-02T21:55:38.181Z,1.80
2018-10-02T21:58:06.079Z,1.80
2018-10-02T22:00:34.210Z,2.00
2018-10-02T22:03:02.491Z,1.70
2018-10-02T22:05:29.971Z,1.87
2018-10-02T22:07:57.909Z,2.20
2018-10-02T22:10:25.513Z,1.57
2018-10-02T22:12:57.674Z,1.80
2018-10-02T22:15:25.109Z,1.90
2018-10-02T22:17:52.576Z,1.60
2018-10-02T22:20:20.045Z,2.00
2018-10-02T22:22:47.511Z,2.23
2018-10-02T22:25:15.014Z,1.80
2018-10-02T22:27:42.459Z,2.17
2018-10-02T22:30:11.439Z,1.60
2018-10-02T22:32:38.904Z,1.63
2018-10-02T22:35:06.605Z,2.07
2018-10-02T22:37:34.055Z,1.70
2018-10-02T22:40:01.558Z,2.10
2018-10-02T22:42:28.969Z,1.73
2018-10-02T22:44:56.404Z,1.87
2018-10-02T22:47:23.869Z,1.70
2018-10-02T22:49:51.279Z,1.67
2018-10-02T22:52:18.695Z,2.03
2018-10-02T22:54:46.136Z,1.50
2018-10-02T22:57:13.581Z,1.80
2018-10-02T22:59:41.037Z,1.80
2018-10-02T23:02:08.430Z,1.70
2018-10-02T23:04:35.920Z,1.60
2018-10-02T23:07:03.359Z,1.50
2018-10-02T23:09:30.819Z,1.83
2018-10-02T23:11:58.279Z,2.20
2018-10-02T23:14:25.747Z,2.00
2018-10-02T23:16:53.137Z,1.93
2018-10-02T23:19:20.580Z,1.60
2018-10-02T23:21:47.951Z,1.87
2018-10-02T23:24:15.463Z,1.60
2018-10-02T23:26:42.879Z,1.40
2018-10-02T23:29:10.595Z,1.60
2018-10-02T23:31:37.984Z,1.47
2018-10-02T23:34:14.842Z,1.53
2018-10-02T23:36:42.273Z,1.73
2018-10-02T23:39:09.939Z,1.53
2018-10-02T23:41:37.354Z,1.60
2018-10-02T23:44:04.820Z,1.40
2018-10-02T23:46:32.258Z,1.33
2018-10-02T23:48:59.643Z,1.50
2018-10-02T23:51:27.225Z,1.50
2018-10-02T23:53:54.699Z,1.20
2018-10-02T23:56:22.230Z,1.30
2018-10-02T23:58:49.635Z,1.40
